createdAt,value
2023-08-11T07:58:49.262Z,20367.36
2023-08-11T07:59:49.669Z,20551.68
2023-08-11T08:00:50.084Z,20828.16
2023-08-11T08:01:50.790Z,21104.64
2023-08-11T08:02:52.182Z,21473.28
2023-08-11T08:03:51.695Z,21841.92
2023-08-11T08:04:54.100Z,22026.24
2023-08-11T08:05:52.497Z,22302.72
2023-08-11T08:06:52.790Z,22487.04
2023-08-11T08:07:53.140Z,22763.52
2023-08-11T08:08:53.537Z,23040.00
2023-08-11T08:09:54.048Z,23500.80
2023-08-11T08:10:54.420Z,23592.96
2023-08-11T08:11:54.806Z,23961.60
2023-08-11T08:12:55.219Z,24145.92
2023-08-11T08:13:55.566Z,24514.56
2023-08-11T08:14:56.049Z,24883.20
2023-08-11T08:15:56.423Z,25067.52
2023-08-11T08:16:56.755Z,25436.16
2023-08-11T08:17:57.242Z,25804.80
2023-08-11T08:18:57.635Z,26357.76
2023-08-11T08:19:57.985Z,26910.72
2023-08-11T08:20:58.626Z,27463.68
2023-08-11T08:21:59.013Z,27832.32
2023-08-11T08:22:59.478Z,28200.96
2023-08-11T08:24:00.041Z,28569.60
2023-08-11T08:25:00.440Z,28938.24
2023-08-11T08:26:00.922Z,29491.20
2023-08-11T08:27:01.018Z,29859.84
2023-08-11T08:28:06.605Z,30228.48
2023-08-11T08:29:01.839Z,30412.80
2023-08-11T08:30:02.196Z,30597.12
2023-08-11T08:31:02.550Z,30781.44
2023-08-11T08:31:15.245Z,30781.44
2023-08-11T08:32:15.672Z,31150.08
2023-08-11T08:33:15.989Z,31518.72
2023-08-11T08:34:16.150Z,32071.68
2023-08-11T08:35:16.672Z,32440.32
2023-08-11T08:36:16.939Z,32808.96
2023-08-11T08:37:17.330Z,32993.28
2023-08-11T08:38:17.690Z,32993.28
2023-08-11T08:39:18.018Z,32993.28
2023-08-11T08:40:18.441Z,33177.60
2023-08-11T08:41:18.704Z,33361.92
2023-08-11T08:42:19.007Z,33914.88
2023-08-11T08:43:19.358Z,34099.20
2023-08-11T08:44:19.694Z,34283.52
2023-08-11T08:45:20.456Z,34467.84
2023-08-11T08:46:20.968Z,34652.16
2023-08-11T08:47:21.672Z,34652.16
2023-08-11T08:48:22.117Z,34836.48
2023-08-11T08:49:22.627Z,35205.12
2023-08-11T08:50:23.121Z,35389.44
2023-08-11T08:51:23.469Z,35573.76
2023-08-11T08:52:24.348Z,35758.08
2023-08-11T08:53:24.738Z,35942.40
2023-08-11T08:54:24.997Z,36126.72
2023-08-11T08:55:25.802Z,36126.72
2023-08-11T08:56:26.129Z,36311.04
2023-08-11T08:57:26.457Z,36311.04
2023-08-11T08:58:26.836Z,36495.36
2023-08-11T08:59:27.218Z,36864.00
2023-08-11T09:00:27.809Z,37232.64
2023-08-11T09:01:28.485Z,37601.28
2023-08-11T09:02:29.215Z,37785.60
2023-08-11T09:03:29.654Z,38154.24
2023-08-11T09:03:38.368Z,38154.24
2023-08-11T09:04:38.668Z,38338.56
2023-08-11T09:05:38.988Z,38338.56
2023-08-11T09:06:39.525Z,38338.56
2023-08-11T09:07:39.828Z,38522.88
2023-08-11T09:08:40.104Z,38522.88
2023-08-11T09:09:40.890Z,38707.20
2023-08-11T09:10:41.469Z,39075.84
2023-08-11T09:11:42.060Z,39444.48
2023-08-11T09:12:42.715Z,39628.80
2023-08-11T09:13:42.742Z,39997.44
2023-08-11T09:14:43.193Z,40366.08
2023-08-11T09:15:43.595Z,40734.72
2023-08-11T09:16:44.007Z,40919.04
2023-08-11T09:17:44.611Z,40919.04
2023-08-11T09:18:44.943Z,41103.36
2023-08-11T09:19:45.845Z,41103.36
2023-08-11T09:20:46.349Z,41287.68
2023-08-11T09:21:46.990Z,41472.00
2023-08-11T09:22:47.047Z,41656.32
2023-08-11T09:23:47.549Z,41656.32
2023-08-11T09:24:48.044Z,41840.64
2023-08-11T09:25:48.890Z,42393.60
2023-08-11T09:26:49.585Z,42577.92
2023-08-11T09:27:49.898Z,42762.24
2023-08-11T09:28:50.381Z,42762.24
2023-08-11T09:29:50.964Z,42762.24
2023-08-11T09:30:51.438Z,42946.56
2023-08-11T09:31:51.960Z,42762.24
2023-08-11T09:32:52.378Z,42577.92
2023-08-11T09:33:52.605Z,42762.24
2023-08-11T09:34:52.943Z,43499.52
2023-08-11T09:35:53.385Z,44421.12
2023-08-11T09:36:02.093Z,44421.12
2023-08-11T09:37:02.367Z,44789.76
2023-08-11T09:38:02.683Z,45158.40
2023-08-11T09:39:03.583Z,45342.72
2023-08-11T09:40:04.237Z,45527.04
2023-08-11T09:41:05.039Z,45527.04
2023-08-11T09:42:05.453Z,45527.04
2023-08-11T09:43:05.827Z,45342.72
2023-08-11T09:44:06.618Z,45158.40
2023-08-11T09:45:07.325Z,45158.40
2023-08-11T09:46:07.492Z,45342.72
2023-08-11T09:47:15.756Z,45711.36
2023-08-11T09:48:08.301Z,46080.00
2023-08-11T09:49:08.174Z,46448.64
2023-08-11T09:50:09.050Z,46817.28
2023-08-11T09:51:09.687Z,47185.92
2023-08-11T09:52:10.258Z,47185.92
2023-08-11T09:53:10.456Z,46817.28
2023-08-11T09:54:10.506Z,46448.64
2023-08-11T09:55:10.930Z,46080.00
2023-08-11T09:56:11.505Z,45895.68
2023-08-11T09:57:11.898Z,45895.68
2023-08-11T09:58:12.306Z,46264.32
2023-08-11T09:59:12.859Z,46632.96
2023-08-11T10:00:13.307Z,47185.92
2023-08-11T10:01:20.496Z,47554.56
2023-08-11T10:02:14.569Z,48291.84
2023-08-11T10:03:15.380Z,48660.48
2023-08-11T10:04:15.702Z,48660.48
2023-08-11T10:05:16.287Z,49029.12
2023-08-11T10:06:16.894Z,49029.12
2023-08-11T10:07:17.337Z,49029.12
2023-08-11T10:07:29.132Z,49029.12
2023-08-11T10:08:29.937Z,48660.48
2023-08-11T10:09:30.830Z,48660.48
2023-08-11T10:10:31.119Z,48291.84
2023-08-11T10:11:31.877Z,48660.48
2023-08-11T10:12:32.590Z,48660.48
2023-08-11T10:13:32.986Z,48660.48
2023-08-11T10:14:34.383Z,49029.12
2023-08-11T10:15:34.042Z,49397.76
2023-08-11T10:16:34.602Z,49766.40
2023-08-11T10:17:35.281Z,49766.40
2023-08-11T10:18:35.506Z,50135.04
2023-08-11T10:19:35.963Z,49766.40
2023-08-11T10:20:36.442Z,50135.04
2023-08-11T10:21:36.655Z,50135.04
2023-08-11T10:22:37.153Z,50503.68
2023-08-11T10:23:37.266Z,50872.32
2023-08-11T10:24:37.515Z,50872.32
2023-08-11T10:25:37.861Z,50872.32
2023-08-11T10:26:38.347Z,50872.32
2023-08-11T10:27:38.868Z,50872.32
2023-08-11T10:28:39.372Z,50872.32
2023-08-11T10:29:40.192Z,51240.96
2023-08-11T10:30:40.687Z,51240.96
2023-08-11T10:31:41.648Z,51240.96
2023-08-11T10:32:41.898Z,51240.96
2023-08-11T10:33:42.364Z,51240.96
2023-08-11T10:34:42.891Z,51240.96
2023-08-11T10:35:43.592Z,51240.96
2023-08-11T10:36:44.163Z,51240.96
2023-08-11T10:37:45.005Z,51609.60
2023-08-11T10:38:45.319Z,51609.60
2023-08-11T10:39:45.656Z,51609.60
2023-08-11T10:39:56.991Z,51609.60
2023-08-11T10:40:56.405Z,51609.60
2023-08-11T10:41:57.279Z,51609.60
2023-08-11T10:42:58.106Z,51609.60
2023-08-11T10:43:58.890Z,51609.60
2023-08-11T10:44:59.634Z,51978.24
2023-08-11T10:46:00.328Z,51978.24
2023-08-11T10:47:01.424Z,52346.88
2023-08-11T10:48:01.606Z,52346.88
2023-08-11T10:49:02.108Z,51609.60
2023-08-11T10:50:02.620Z,50872.32
2023-08-11T10:51:02.934Z,52346.88
2023-08-11T10:52:03.778Z,51978.24
2023-08-11T10:53:04.107Z,51609.60
2023-08-11T10:54:04.437Z,51978.24
2023-08-11T10:55:05.249Z,52346.88
2023-08-11T10:56:05.774Z,51978.24
2023-08-11T10:57:06.526Z,50872.32
2023-08-11T10:58:06.963Z,51978.24
2023-08-11T10:59:07.524Z,52715.52
2023-08-11T11:00:08.329Z,53821.44
2023-08-11T11:01:08.921Z,54190.08
2023-08-11T11:02:09.588Z,54558.72
2023-08-11T11:03:09.784Z,51609.60
2023-08-11T11:04:10.180Z,44789.76
2023-08-11T11:05:11.968Z,54190.08
2023-08-11T11:06:11.440Z,50503.68
2023-08-11T11:07:12.029Z,48660.48
2023-08-11T11:08:12.349Z,44605.44
2023-08-11T11:08:23.060Z,40734.72
2023-08-11T11:09:23.881Z,51978.24
2023-08-11T11:10:27.702Z,51978.24
2023-08-11T11:11:27.710Z,49766.40
2023-08-11T11:12:56.924Z,52715.52
2023-08-11T11:13:57.292Z,53821.44
2023-08-11T11:14:58.049Z,53821.44
2023-08-11T11:15:58.903Z,54558.72
2023-08-11T11:16:59.493Z,52715.52
2023-08-11T11:18:00.155Z,52346.88
2023-08-11T11:19:00.482Z,54190.08
2023-08-11T11:20:03.216Z,54927.36
2023-08-11T11:21:01.276Z,54558.72
2023-08-11T11:22:01.802Z,54190.08
2023-08-11T11:23:02.301Z,53452.80
2023-08-11T11:24:02.675Z,50503.68
2023-08-11T11:25:03.189Z,49766.40
2023-08-11T11:26:03.504Z,53452.80
2023-08-11T11:27:03.820Z,51978.24
2023-08-11T11:28:04.762Z,53452.80
2023-08-11T11:29:04.952Z,49029.12
2023-08-11T11:30:05.338Z,47554.56
2023-08-11T11:31:06.185Z,46817.28
2023-08-11T11:32:06.956Z,52715.52
2023-08-11T11:33:07.787Z,49766.40
2023-08-11T11:34:07.353Z,42577.92
2023-08-11T11:35:07.755Z,46817.28
2023-08-11T11:36:08.104Z,47923.20
2023-08-11T11:37:08.772Z,50872.32
2023-08-11T11:38:09.762Z,53821.44
2023-08-11T11:39:10.625Z,51978.24
2023-08-11T11:40:10.789Z,51240.96
2023-08-11T11:41:10.890Z,50503.68
2023-08-11T11:42:11.572Z,54190.08
2023-08-11T11:43:11.708Z,54927.36
2023-08-11T11:44:12.458Z,52346.88
2023-08-11T11:44:21.200Z,53452.80
2023-08-11T11:45:21.383Z,52715.52
2023-08-11T11:46:22.333Z,50872.32
2023-08-11T11:47:22.396Z,51609.60
2023-08-11T11:48:22.389Z,52346.88
2023-08-11T11:49:29.917Z,50872.32
2023-08-11T11:50:23.083Z,52715.52
2023-08-11T11:51:23.485Z,51978.24
2023-08-11T11:52:23.898Z,52715.52
2023-08-11T11:53:24.421Z,52715.52
2023-08-11T11:54:27.030Z,53452.80
2023-08-11T11:55:25.585Z,55296.00
2023-08-11T11:57:11.942Z,54927.36
2023-08-11T11:58:11.447Z,54927.36
2023-08-11T11:59:11.820Z,54558.72
2023-08-11T12:00:11.819Z,53821.44
2023-08-11T12:01:12.553Z,54190.08
2023-08-11T12:02:13.936Z,53821.44
2023-08-11T12:03:14.064Z,53452.80
2023-08-11T12:04:14.317Z,53452.80
2023-08-11T12:05:14.759Z,53452.80
2023-08-11T12:06:15.503Z,53452.80
2023-08-11T12:07:16.374Z,53821.44
2023-08-11T12:08:16.546Z,53821.44
2023-08-11T12:09:17.023Z,53821.44
2023-08-11T12:10:17.969Z,54190.08
2023-08-11T12:11:18.250Z,54190.08
2023-08-11T12:12:19.189Z,53821.44
2023-08-11T12:13:19.569Z,53452.80
2023-08-11T12:14:19.639Z,53821.44
2023-08-11T12:15:20.600Z,53084.16
2023-08-11T12:16:20.960Z,53084.16
2023-08-11T12:17:21.373Z,53084.16
2023-08-11T12:18:22.197Z,53452.80
2023-08-11T12:19:22.909Z,53452.80
2023-08-11T12:20:22.890Z,53452.80
2023-08-11T12:21:23.716Z,53084.16
2023-08-11T12:22:24.077Z,53084.16
2023-08-11T12:23:24.382Z,53084.16
2023-08-11T12:24:24.781Z,53084.16
2023-08-11T12:25:25.635Z,53452.80
2023-08-11T12:26:26.711Z,53084.16
2023-08-11T12:27:27.134Z,53452.80
2023-08-11T12:28:26.293Z,53084.16
2023-08-11T12:28:50.377Z,53452.80
2023-08-11T12:29:50.106Z,53084.16
2023-08-11T12:30:51.010Z,52715.52
2023-08-11T12:31:51.818Z,51978.24
2023-08-11T12:32:52.797Z,50503.68
2023-08-11T12:33:53.279Z,49029.12
2023-08-11T12:54:09.918Z,52346.88
2023-08-11T12:55:10.765Z,46264.32
2023-08-11T12:56:11.614Z,49766.40
2023-08-11T12:57:11.820Z,52346.88
2023-08-11T12:58:18.584Z,52715.52
2023-08-11T12:59:14.635Z,52715.52
2023-08-11T13:00:13.162Z,53452.80
2023-08-11T13:01:17.005Z,54190.08
2023-08-11T13:02:15.917Z,50872.32
2023-08-11T13:03:16.925Z,50135.04
2023-08-11T13:04:18.786Z,51609.60
2023-08-11T13:05:16.631Z,49397.76
2023-08-11T13:06:18.519Z,47923.20
2023-08-11T13:07:18.383Z,49766.40
2023-08-11T13:08:19.619Z,53452.80
2023-08-11T13:09:20.695Z,51978.24
2023-08-11T13:10:19.880Z,52346.88
2023-08-11T13:11:22.757Z,53084.16
2023-08-11T13:12:20.582Z,49397.76
2023-08-11T13:13:21.477Z,47923.20
2023-08-11T13:14:59.214Z,54190.08
2023-08-11T13:16:43.413Z,41287.68
2023-08-11T13:17:41.100Z,54558.72
2023-08-11T13:19:14.470Z,54190.08
2023-08-11T13:20:11.271Z,51609.60
2023-08-11T13:21:11.956Z,53452.80
2023-08-11T13:22:11.332Z,53084.16
2023-08-11T13:23:11.946Z,53084.16
2023-08-11T13:24:12.085Z,50872.32
2023-08-11T13:25:12.280Z,47923.20
2023-08-11T13:26:13.751Z,47554.56
2023-08-11T13:27:13.574Z,47185.92
2023-08-11T13:28:15.497Z,44974.08
2023-08-11T13:29:14.742Z,38707.20
2023-08-11T13:30:15.688Z,40550.40
2023-08-11T13:31:15.950Z,42209.28
2023-08-11T13:32:16.601Z,32808.96
2023-08-11T13:33:17.513Z,28938.24
2023-08-11T13:34:18.478Z,32624.64
2023-08-11T13:35:18.419Z,34467.84
2023-08-11T13:36:19.198Z,35020.80
2023-08-11T13:37:19.185Z,35942.40
2023-08-11T13:38:20.064Z,39260.16
2023-08-11T13:38:32.689Z,39628.80
2023-08-11T13:39:32.865Z,39813.12
2023-08-11T13:40:33.089Z,39997.44
2023-08-11T13:41:33.828Z,41103.36
2023-08-11T13:42:34.010Z,39628.80
2023-08-11T13:43:35.981Z,38707.20
2023-08-11T13:44:35.842Z,37785.60
2023-08-11T13:45:36.325Z,35573.76
2023-08-11T13:46:37.056Z,35020.80
2023-08-11T13:47:43.364Z,31150.08
2023-08-11T13:48:39.159Z,29859.84
2023-08-11T13:49:40.112Z,34099.20
2023-08-11T13:50:39.994Z,36126.72
2023-08-11T13:51:41.046Z,40181.76
2023-08-11T13:52:40.944Z,41840.64
2023-08-11T13:53:41.745Z,42209.28
2023-08-11T13:54:42.706Z,43868.16
2023-08-11T13:55:42.844Z,45342.72
2023-08-11T13:56:38.046Z,46448.64
2023-08-11T13:57:38.209Z,47554.56
2023-08-11T13:58:39.016Z,46817.28
2023-08-11T13:59:39.918Z,45158.40
2023-08-11T14:00:41.539Z,42762.24
2023-08-11T14:01:40.474Z,40919.04
2023-08-11T14:02:41.269Z,41472.00
2023-08-11T14:03:41.454Z,41472.00
2023-08-11T14:04:45.018Z,39813.12
2023-08-11T14:05:42.745Z,39260.16
2023-08-11T14:08:17.055Z,41103.36
2023-08-11T14:09:17.219Z,40181.76
2023-08-11T14:10:18.137Z,39075.84
2023-08-11T14:11:19.002Z,42577.92
2023-08-11T14:12:19.654Z,40734.72
2023-08-11T14:13:19.843Z,38154.24
2023-08-11T14:14:20.987Z,32993.28
2023-08-11T14:15:20.899Z,39075.84
2023-08-11T14:16:22.663Z,34283.52
2023-08-11T14:17:21.727Z,35573.76
2023-08-11T14:18:23.580Z,33546.24
2023-08-11T14:19:23.420Z,28569.60
2023-08-11T14:20:24.287Z,22210.56
2023-08-11T14:21:24.439Z,26173.44
2023-08-11T14:21:40.661Z,26357.76
2023-08-11T14:22:40.537Z,29491.20
2023-08-11T14:23:41.362Z,26726.40
2023-08-11T14:24:41.913Z,21934.08
2023-08-11T14:25:42.270Z,21934.08
2023-08-11T14:26:43.076Z,20183.04
2023-08-11T14:27:43.274Z,22671.36
2023-08-11T14:28:44.024Z,34836.48
2023-08-11T14:29:44.064Z,37416.96
2023-08-11T14:30:44.139Z,34099.20
2023-08-11T14:31:44.534Z,34283.52
2023-08-11T14:32:44.988Z,35389.44
2023-08-11T14:33:45.050Z,35205.12
2023-08-11T14:35:53.424Z,26542.08
2023-08-11T14:36:56.946Z,25989.12
2023-08-11T14:38:57.935Z,30228.48
2023-08-11T14:41:27.762Z,34836.48
2023-08-11T14:42:27.376Z,26542.08
2023-08-11T14:43:27.653Z,27463.68
2023-08-11T14:44:28.463Z,28569.60
2023-08-11T14:45:28.476Z,30044.16
2023-08-11T14:46:28.804Z,34652.16
2023-08-11T14:47:32.268Z,35758.08
2023-08-11T14:48:30.346Z,34467.84
2023-08-11T14:49:31.144Z,33177.60
2023-08-11T14:50:32.044Z,33914.88
2023-08-11T14:50:41.230Z,33914.88
2023-08-11T14:51:41.026Z,33914.88
2023-08-11T14:52:41.189Z,32071.68
2023-08-11T14:53:41.977Z,33177.60
2023-08-11T14:54:42.256Z,34099.20
2023-08-11T14:56:49.809Z,29491.20
2023-08-11T14:57:50.601Z,31334.40
2023-08-11T14:58:50.592Z,32071.68
2023-08-11T14:59:51.223Z,32993.28
2023-08-11T15:00:51.752Z,33361.92
2023-08-11T15:01:52.496Z,31887.36
2023-08-11T15:02:53.488Z,31887.36
2023-08-11T15:03:54.417Z,32808.96
2023-08-11T15:04:54.704Z,34836.48
2023-08-11T15:05:55.119Z,35942.40
2023-08-11T15:06:56.159Z,32993.28
2023-08-11T15:07:56.287Z,35389.44
2023-08-11T15:08:56.687Z,34836.48
2023-08-11T15:09:57.237Z,36495.36
2023-08-11T15:10:57.529Z,37969.92
2023-08-11T15:11:57.773Z,39260.16
2023-08-11T15:12:57.987Z,40181.76
2023-08-11T15:13:58.704Z,41103.36
2023-08-11T15:14:58.778Z,40550.40
2023-08-11T15:15:59.416Z,40550.40
2023-08-11T15:17:00.266Z,39628.80
2023-08-11T15:18:00.308Z,39260.16
2023-08-11T15:19:00.789Z,39813.12
2023-08-11T15:20:01.439Z,39628.80
2023-08-11T15:21:01.856Z,39260.16
2023-08-11T15:22:02.001Z,39813.12
2023-08-11T15:23:02.844Z,38707.20
2023-08-11T15:23:17.374Z,38522.88
2023-08-11T15:24:17.130Z,38891.52
2023-08-11T15:25:17.262Z,37601.28
2023-08-11T15:26:18.167Z,36864.00
2023-08-11T15:27:18.673Z,36126.72
2023-08-11T15:28:18.924Z,35020.80
2023-08-11T15:29:19.206Z,35573.76
2023-08-11T15:30:20.178Z,33914.88
2023-08-11T15:31:20.518Z,31150.08
2023-08-11T15:32:21.685Z,30228.48
2023-08-11T15:33:21.881Z,32256.00
2023-08-11T15:34:22.665Z,32256.00
2023-08-11T15:35:23.508Z,31887.36
2023-08-11T15:36:23.552Z,30228.48
2023-08-11T15:37:24.545Z,24883.20
2023-08-11T15:38:25.059Z,24330.24
2023-08-11T15:39:25.844Z,30228.48
2023-08-11T15:40:26.484Z,33361.92
2023-08-11T15:41:27.437Z,33361.92
2023-08-11T15:42:27.903Z,31703.04
2023-08-11T15:43:28.881Z,33914.88
2023-08-11T15:44:29.799Z,32071.68
2023-08-11T15:45:30.763Z,31518.72
2023-08-11T15:46:30.948Z,31334.40
2023-08-11T15:47:31.164Z,31703.04
2023-08-11T15:48:31.236Z,32624.64
2023-08-11T15:49:32.857Z,32256.00
2023-08-11T15:50:31.986Z,32256.00
2023-08-11T15:50:40.712Z,32440.32
2023-08-11T15:51:40.849Z,32993.28
2023-08-11T15:52:41.327Z,31518.72
2023-08-11T15:53:41.518Z,31150.08
2023-08-11T15:54:42.237Z,30044.16
2023-08-11T15:55:42.715Z,30044.16
2023-08-11T15:56:43.107Z,29675.52
2023-08-11T15:58:10.959Z,28385.28
2023-08-11T15:59:11.522Z,18155.52
2023-08-11T16:00:11.801Z,6128.64
2023-08-11T16:01:44.201Z,4469.76
2023-08-11T16:02:43.335Z,4308.48
2023-08-11T16:03:43.497Z,4124.16
2023-08-11T16:04:43.388Z,4032.00
2023-08-11T16:05:43.504Z,3962.88
2023-08-11T16:06:43.635Z,3916.80
2023-08-11T16:07:46.834Z,3939.84
2023-08-11T16:08:45.418Z,3916.80
2023-08-11T16:09:44.933Z,3962.88
2023-08-11T16:10:45.389Z,3870.72
2023-08-11T16:11:46.340Z,3617.28
2023-08-11T16:12:46.530Z,3386.88
2023-08-11T16:13:47.400Z,3525.12
2023-08-11T16:14:47.558Z,3640.32
2023-08-11T16:15:48.518Z,3686.40
2023-08-11T16:16:49.191Z,3709.44
2023-08-11T16:17:49.636Z,3732.48
2023-08-11T16:18:50.183Z,3778.56
2023-08-11T16:19:50.528Z,3755.52
2023-08-11T16:20:50.600Z,3709.44
2023-08-11T16:21:51.658Z,3686.40
2023-08-11T16:22:50.968Z,3617.28
2023-08-11T16:23:51.728Z,3548.16
2023-08-11T16:24:51.986Z,3548.16
2023-08-11T16:25:52.340Z,3548.16
2023-08-11T16:26:53.821Z,3571.20
2023-08-11T16:27:53.649Z,3502.08
2023-08-11T16:28:53.723Z,3479.04
2023-08-11T16:29:54.266Z,3432.96
2023-08-11T16:30:54.585Z,3432.96
2023-08-11T16:31:07.287Z,3479.04
2023-08-11T16:32:07.600Z,3755.52
2023-08-11T16:33:08.408Z,4008.96
2023-08-11T16:34:08.980Z,4124.16
2023-08-11T16:35:09.158Z,4239.36
2023-08-11T16:36:09.471Z,4216.32
2023-08-11T16:37:09.878Z,4515.84
2023-08-11T16:38:10.145Z,4584.96
2023-08-11T16:39:10.728Z,4584.96
2023-08-11T16:40:11.103Z,4654.08
2023-08-11T16:41:11.562Z,4723.20
2023-08-11T16:42:20.037Z,4792.32
2023-08-11T16:43:13.082Z,4907.52
2023-08-11T16:44:13.800Z,5068.80
2023-08-11T16:45:14.034Z,5299.20
2023-08-11T16:46:14.543Z,5529.60
2023-08-11T16:47:04.159Z,5644.80
2023-08-11T16:48:04.954Z,5552.64
2023-08-11T16:49:05.752Z,5184.00
2023-08-11T16:50:06.714Z,5114.88
2023-08-11T16:51:07.716Z,5483.52
2023-08-11T16:52:06.716Z,6497.28
2023-08-11T16:53:06.947Z,7741.44
2023-08-11T16:54:08.728Z,4723.20
2023-08-11T16:55:07.817Z,7050.24
2023-08-11T16:56:08.085Z,4354.56
2023-08-11T16:57:08.895Z,4008.96
2023-08-11T16:58:09.697Z,3824.64
2023-08-11T16:59:11.600Z,3663.36
2023-08-11T17:00:11.451Z,3525.12
2023-08-11T17:01:12.362Z,3432.96
2023-08-11T17:02:13.360Z,3363.84
2023-08-11T17:03:14.467Z,3294.72
2023-08-11T17:10:10.780Z,2926.08
2023-08-11T17:18:56.696Z,3133.44
2023-08-11T17:23:41.212Z,3225.60
2023-08-11T17:28:45.955Z,2787.84
2023-08-11T17:29:46.232Z,2672.64
2023-08-11T17:34:40.218Z,2373.12
2023-08-11T17:39:17.136Z,2073.60
2023-08-11T17:40:18.410Z,2039.04
2023-08-11T17:41:20.209Z,2142.72
2023-08-11T17:42:18.882Z,2177.28
2023-08-11T17:43:19.698Z,2200.32
2023-08-11T17:44:19.900Z,2246.40
2023-08-11T17:45:20.778Z,2131.20
2023-08-11T17:46:21.715Z,2016.00
2023-08-11T17:46:39.685Z,1992.96
2023-08-11T17:47:39.456Z,1935.36
2023-08-11T17:49:20.424Z,1889.28
2023-08-11T17:50:21.191Z,1866.24
2023-08-11T17:51:21.273Z,1866.24
2023-08-11T17:52:22.108Z,1912.32
2023-08-11T17:53:22.170Z,1923.84
2023-08-11T17:54:22.299Z,1831.68
2023-08-11T17:55:23.141Z,1704.96
2023-08-11T17:56:23.971Z,1635.84
2023-08-11T17:57:24.781Z,1589.76
2023-08-11T17:58:25.266Z,1589.76
2023-08-11T17:59:08.533Z,1566.72
2023-08-11T18:00:09.476Z,1566.72
2023-08-11T18:01:10.403Z,1589.76
2023-08-11T18:02:11.492Z,1601.28
2023-08-11T18:03:12.188Z,1532.16
2023-08-11T18:04:12.144Z,1474.56
2023-08-11T18:05:12.306Z,1497.60
2023-08-11T18:06:13.221Z,1445.76
2023-08-11T18:07:15.007Z,1382.40
2023-08-11T18:08:14.797Z,1342.08
2023-08-11T18:09:15.146Z,1301.76
2023-08-11T18:10:15.556Z,1324.80
2023-08-11T18:11:15.668Z,1376.64
2023-08-11T18:12:16.325Z,1278.72
2023-08-11T18:13:17.179Z,1157.76
2023-08-11T18:14:17.299Z,1111.68
2023-08-11T18:15:18.922Z,1059.84
2023-08-11T18:16:18.201Z,1002.24
2023-08-11T18:17:19.041Z,944.64
2023-08-11T18:18:19.270Z,887.04
2023-08-11T18:19:20.084Z,835.20
2023-08-11T18:19:35.092Z,743.04
2023-08-11T18:20:35.959Z,705.60
2023-08-11T18:21:38.834Z,679.68
2023-08-11T18:22:36.262Z,668.16
2023-08-11T18:23:36.439Z,671.04
2023-08-11T18:24:37.227Z,679.68
2023-08-11T18:25:38.235Z,694.08
2023-08-11T18:26:39.053Z,688.32
2023-08-11T18:27:39.885Z,668.16
2023-08-11T18:28:41.079Z,645.12
2023-08-11T18:29:40.781Z,624.96
2023-08-11T18:30:43.507Z,607.68
2023-08-11T18:31:42.252Z,587.52
2023-08-11T18:32:46.037Z,570.24
2023-08-11T18:33:43.942Z,552.96
2023-08-11T18:34:44.855Z,535.68
2023-08-11T18:35:45.714Z,515.52
2023-08-11T18:36:46.641Z,492.48
2023-08-11T18:37:00.292Z,489.60
2023-08-11T18:38:00.707Z,466.56
2023-08-11T18:39:01.532Z,440.64
2023-08-11T18:40:02.390Z,414.72
2023-08-11T18:41:02.494Z,383.04
2023-08-11T18:42:03.421Z,355.68
2023-08-11T18:43:04.245Z,328.32
2023-08-11T18:45:19.917Z,286.56
2023-08-11T19:00:13.237Z,89.28
2023-08-11T19:01:13.315Z,81.72
2023-08-11T19:03:01.085Z,68.76
2023-08-11T19:04:01.390Z,62.28
2023-08-11T19:05:02.232Z,55.80
2023-08-11T19:06:02.216Z,50.04
2023-08-11T19:07:02.997Z,44.64
2023-08-11T19:08:04.947Z,39.24
2023-08-11T19:09:15.077Z,34.56
2023-08-11T19:10:12.702Z,30.24
2023-08-11T19:12:07.175Z,23.04
2023-08-11T19:12:16.018Z,26.28
2023-08-11T19:14:50.499Z,17.10
2023-08-11T19:16:13.483Z,12.69
2023-08-11T19:17:11.972Z,10.94
2023-08-11T19:18:16.802Z,9.31
2023-08-11T19:19:50.455Z,7.83
2023-08-11T19:20:43.192Z,6.61
2023-08-11T19:21:08.257Z,5.62
2023-08-11T19:22:05.735Z,4.72
2023-08-11T19:25:03.447Z,3.11
2023-08-11T19:25:44.342Z,2.65
2023-08-11T19:33:59.817Z,0.72
2023-08-11T19:34:53.224Z,0.58
2023-08-11T19:36:01.300Z,0.50
2023-08-11T19:38:54.000Z,0.36
2023-08-11T19:38:54.271Z,0.31
2023-08-11T19:40:57.517Z,0.22
2023-08-11T19:41:59.628Z,0.18
2023-08-11T19:42:58.158Z,0.18
2023-08-11T19:44:00.379Z,0.18
2023-08-11T19:44:56.655Z,0.14
2023-08-11T19:46:56.994Z,0.09
2023-08-11T19:49:42.928Z,0.05
2023-08-11T19:50:05.660Z,0.05
2023-08-11T19:51:57.015Z,0.05
2023-08-11T19:53:00.088Z,0.05
2023-08-11T19:54:59.039Z,0.05
2023-08-11T19:56:00.557Z,0.05
2023-08-11T19:56:57.221Z,0.05
2023-08-11T19:57:08.005Z,0.00
2023-08-11T19:58:01.449Z,0.00
2023-08-11T19:59:10.436Z,0.00
2023-08-11T20:00:02.573Z,0.00
2023-08-11T20:08:06.428Z,0.00
2023-08-11T20:10:07.400Z,0.00
2023-08-11T20:11:17.064Z,0.00
2023-08-11T20:13:11.854Z,0.00
2023-08-11T20:14:10.533Z,0.00
2023-08-11T20:15:13.270Z,0.00
2023-08-11T20:16:31.775Z,0.00
2023-08-11T20:17:12.733Z,0.00
2023-08-11T20:18:14.640Z,0.00
2023-08-11T20:20:50.203Z,0.00
2023-08-11T20:22:22.763Z,0.00
2023-08-11T20:22:45.283Z,0.00
2023-08-11T20:23:47.850Z,0.00
2023-08-11T20:25:55.695Z,0.00
2023-08-11T20:27:48.788Z,0.00
2023-08-11T20:28:27.155Z,0.00
2023-08-11T20:29:52.094Z,0.00
2023-08-11T20:30:51.962Z,0.00
2023-08-11T20:31:50.263Z,0.00
2023-08-11T20:34:15.466Z,0.00
2023-08-11T20:36:19.362Z,0.00
2023-08-11T20:38:26.275Z,0.00
2023-08-11T20:39:23.841Z,0.00
2023-08-11T20:40:24.674Z,0.00
2023-08-11T20:41:25.296Z,0.00
2023-08-11T20:42:26.009Z,0.00
2023-08-11T20:43:58.099Z,0.00
2023-08-11T20:44:58.746Z,0.00
2023-08-11T20:45:59.327Z,0.00
2023-08-11T20:47:00.086Z,0.00
2023-08-11T20:48:01.252Z,0.00
2023-08-11T20:49:01.285Z,0.00
2023-08-11T20:50:01.721Z,0.00
2023-08-11T20:51:05.342Z,0.00
2023-08-11T20:52:03.454Z,0.00
2023-08-11T20:53:04.621Z,0.00
2023-08-11T20:54:04.446Z,0.00
2023-08-11T21:01:09.891Z,0.00
2023-08-11T21:02:47.391Z,0.00
2023-08-11T21:04:29.234Z,0.00
2023-08-11T21:05:29.506Z,0.00
2023-08-11T21:07:00.298Z,0.00
2023-08-11T21:08:00.531Z,0.00
2023-08-11T21:10:14.282Z,0.00
2023-08-11T21:11:12.133Z,0.00
2023-08-11T21:12:12.960Z,0.00
2023-08-11T21:13:13.784Z,0.00
2023-08-11T21:14:14.301Z,0.00
2023-08-11T21:15:14.927Z,0.00
2023-08-11T21:16:15.724Z,0.00
2023-08-11T21:17:17.166Z,0.00
2023-08-11T21:18:15.884Z,0.00
2023-08-11T21:19:16.028Z,0.00
2023-08-11T21:20:16.078Z,0.00
2023-08-11T21:21:16.809Z,0.00
2023-08-11T21:22:17.579Z,0.00
2023-08-11T21:23:20.427Z,0.00
2023-08-11T21:24:18.829Z,0.00
2023-08-11T21:25:19.254Z,0.00
2023-08-11T21:26:20.081Z,0.00
2023-08-11T21:26:31.774Z,0.00
2023-08-11T21:27:32.731Z,0.00
2023-08-11T21:28:32.997Z,0.00
2023-08-11T21:29:33.829Z,0.00
2023-08-11T21:30:34.652Z,0.00
2023-08-11T21:31:36.077Z,0.00
2023-08-11T21:32:36.818Z,0.00
2023-08-11T21:33:36.652Z,0.00
2023-08-11T21:34:37.480Z,0.00
2023-08-11T21:35:37.860Z,0.00
2023-08-11T21:36:37.995Z,0.00
2023-08-11T21:37:38.299Z,0.00
2023-08-11T21:38:39.192Z,0.00
2023-08-11T21:38:53.851Z,0.00
2023-08-11T21:39:51.492Z,0.00
2023-08-11T21:40:51.712Z,0.00
2023-08-11T21:41:52.650Z,0.00
2023-08-11T21:42:52.967Z,0.00
2023-08-11T21:43:53.515Z,0.00
2023-08-11T21:44:54.042Z,0.00
2023-08-11T21:45:54.251Z,0.00
2023-08-11T21:46:54.672Z,0.00
2023-08-11T21:47:55.127Z,0.00
2023-08-11T21:48:55.687Z,0.00
2023-08-11T21:49:56.129Z,0.00